HMO weather

General Ignacio P. Garcia International Airport
Hermosillo, Sonora, Mexico

Public forecast

Using degrees Celsius for public forecast. Weather courtesy of forecast.io.

Current aviation weather report (METAR) for General Ignacio P. Garcia International Airport

Retrieved 2019/10/21 19:40 UTC (8 minutes ago):

MMHO 211940Z 21004KT 10SM SKC 34/02 A2993 RMK HZY

Aviation forecast (TAF) for General Ignacio P. Garcia International Airport

Retrieved 2019/10/21 18:12 UTC (2 hours ago):

TAF MMHO 211705Z 2118/2218 27006KT P6SM SKC FM220600 04005KT P6SM SKC